Time;durP1;ratioP1;P1;durP2;ratioP2;P2;SDS_P1;SDS_P2;PMS_P1;PMS_P2;Temp;Humidity;BMP_temperature;BMP_pressure;BME280_temperature;BME280_humidity;BME280_pressure;Samples;Min_cycle;Max_cycle;Signal;HPM_P1;HPM_P2
2023/04/15 00:00:10;;;;;;;6.07;4.13;;;;;;;8.79;48.10;93082.72;5013876;28;20037;-78
2023/04/15 00:02:36;;;;;;;6.38;3.58;;;;;;;8.82;47.48;93061.66;5013019;28;20400;-78
2023/04/15 00:05:05;;;;;;;10.20;4.22;;;;;;;9.02;47.05;93070.75;5003238;28;20050;-77
2023/04/15 00:07:31;;;;;;;6.00;3.70;;;;;;;8.45;48.06;93057.94;5004222;28;20030;-77
2023/04/15 00:09:57;;;;;;;7.35;4.00;;;;;;;8.72;48.49;93107.06;5003351;28;20081;-79
2023/04/15 00:12:24;;;;;;;6.80;4.15;;;;;;;8.65;48.85;93090.13;5004436;28;20066;-78
2023/04/15 00:14:50;;;;;;;9.48;4.97;;;;;;;8.71;49.21;93123.28;5012729;28;20145;-78
2023/04/15 00:17:16;;;;;;;6.97;4.85;;;;;;;8.58;49.87;93099.34;5005033;28;20475;-78
2023/04/15 00:19:41;;;;;;;7.43;5.20;;;;;;;8.45;49.94;93060.56;5004506;28;20037;-78
2023/04/15 00:22:07;;;;;;;8.55;5.25;;;;;;;8.66;50.33;93083.72;5004083;28;20360;-77
2023/04/15 00:24:32;;;;;;;6.10;5.05;;;;;;;8.58;50.68;93078.13;5005335;28;20025;-78
2023/04/15 00:26:58;;;;;;;7.10;4.55;;;;;;;8.82;50.42;93087.38;5003485;28;20038;-77
2023/04/15 00:29:24;;;;;;;6.20;3.97;;;;;;;8.89;50.03;93092.97;5010288;28;20040;-78
2023/04/15 00:31:50;;;;;;;6.38;3.75;;;;;;;8.90;50.29;93090.00;5009901;28;20049;-79
2023/04/15 00:34:15;;;;;;;6.60;4.35;;;;;;;8.21;50.49;92988.81;5010542;28;20048;-77
2023/04/15 00:36:41;;;;;;;5.40;3.78;;;;;;;8.84;50.79;93090.50;5003984;28;20413;-79
2023/04/15 00:39:06;;;;;;;4.28;3.58;;;;;;;8.84;50.99;93101.91;5006416;28;20030;-77
2023/04/15 00:41:33;;;;;;;5.15;3.33;;;;;;;8.81;51.38;93096.44;5003901;28;20161;-77
2023/04/15 00:44:01;;;;;;;18.00;13.05;;;;;;;8.62;51.26;93098.69;4987697;28;20497;-77
2023/04/15 00:46:29;;;;;;;7.78;4.95;;;;;;;8.27;51.55;93069.66;4989989;28;20088;-79
2023/04/15 00:48:55;;;;;;;8.43;4.75;;;;;;;8.64;51.08;93080.59;4987114;28;20366;-79
2023/04/15 00:51:20;;;;;;;7.55;3.60;;;;;;;8.83;51.03;93091.59;4989731;28;20032;-77
2023/04/15 00:53:46;;;;;;;4.25;2.67;;;;;;;9.02;50.49;93092.75;4985780;28;20045;-80
2023/04/15 00:56:12;;;;;;;6.85;3.40;;;;;;;9.10;50.62;93112.34;4990013;28;20613;-78
2023/04/15 00:58:38;;;;;;;4.65;2.40;;;;;;;9.05;50.39;93109.88;4989011;28;20034;-77
2023/04/15 01:01:03;;;;;;;5.25;2.92;;;;;;;9.06;50.23;93100.06;4989619;28;20408;-77
2023/04/15 01:03:29;;;;;;;5.57;2.03;;;;;;;9.20;50.23;93109.38;4991381;28;20615;-77
2023/04/15 01:05:57;;;;;;;5.35;2.22;;;;;;;9.13;49.54;93098.50;4985855;28;20037;-78
2023/04/15 01:08:28;;;;;;;4.78;2.45;;;;;;;9.25;49.48;93113.72;4988061;28;20589;-78
2023/04/15 01:11:02;;;;;;;4.85;2.53;;;;;;;9.33;49.32;93124.31;4987911;28;20161;-78
2023/04/15 01:13:28;;;;;;;4.22;2.17;;;;;;;9.31;49.11;93112.44;4988285;28;20088;-77
2023/04/15 01:15:55;;;;;;;3.38;2.00;;;;;;;9.28;49.43;93111.22;4985909;28;20494;-77
2023/04/15 01:18:22;;;;;;;5.13;1.98;;;;;;;9.28;49.28;93121.84;4987602;28;20137;-78
2023/04/15 01:20:47;;;;;;;4.18;1.88;;;;;;;9.25;49.58;93114.50;4988067;28;20042;-77
2023/04/15 01:23:13;;;;;;;4.18;2.20;;;;;;;9.22;49.22;93098.44;4989304;28;20034;-77
2023/04/15 01:25:40;;;;;;;2.25;1.90;;;;;;;9.44;48.91;93101.56;4985830;28;20041;-77
2023/04/15 01:28:06;;;;;;;7.72;2.53;;;;;;;9.41;48.38;93096.13;4988377;28;20069;-76
2023/04/15 01:30:34;;;;;;;6.32;1.73;;;;;;;9.38;48.69;93102.88;4990282;28;20109;-77
2023/04/15 01:33:00;;;;;;;5.03;1.92;;;;;;;9.27;48.84;93092.97;4986055;28;20420;-76
2023/04/15 01:35:26;;;;;;;4.97;2.08;;;;;;;9.11;49.06;93090.06;4986386;28;20069;-76
2023/04/15 01:37:54;;;;;;;4.28;1.67;;;;;;;8.88;49.51;93081.59;4987746;28;20171;-78
2023/04/15 01:40:19;;;;;;;4.82;1.70;;;;;;;9.10;49.50;93107.06;4987931;28;20037;-78
2023/04/15 01:42:45;;;;;;;4.32;1.75;;;;;;;8.94;49.65;93104.19;4988095;28;20108;-77
2023/04/15 01:45:12;;;;;;;3.38;1.80;;;;;;;8.99;49.68;93109.31;4985576;28;20081;-78
2023/04/15 01:47:37;;;;;;;2.50;1.73;;;;;;;8.90;49.83;93092.63;4988217;28;20042;-78
2023/04/15 01:50:07;;;;;;;2.35;1.52;;;;;;;9.04;49.68;93111.00;4987682;28;20085;-78
2023/04/15 01:52:32;;;;;;;3.03;1.60;;;;;;;8.92;49.61;93100.28;4988404;28;20031;-77
2023/04/15 01:54:58;;;;;;;3.97;2.00;;;;;;;8.97;49.47;93131.94;4987926;28;20030;-79
2023/04/15 01:57:24;;;;;;;2.60;1.70;;;;;;;8.92;49.50;93124.94;4988643;28;20069;-78
2023/04/15 01:59:49;;;;;;;3.60;1.38;;;;;;;8.91;49.53;93120.72;4986027;28;20077;-78
2023/04/15 02:02:15;;;;;;;3.72;1.90;;;;;;;8.94;49.69;93127.28;4987043;28;20042;-78
2023/04/15 02:04:40;;;;;;;4.03;1.92;;;;;;;8.77;49.38;93096.28;4985491;28;20460;-77
2023/04/15 02:07:06;;;;;;;3.35;1.90;;;;;;;8.91;49.14;93118.06;4989157;28;20755;-78
2023/04/15 02:09:31;;;;;;;4.18;1.88;;;;;;;8.80;49.42;93116.88;4983681;28;20118;-77
2023/04/15 02:11:57;;;;;;;3.65;1.40;;;;;;;8.76;49.26;93104.56;4988044;28;20042;-77
2023/04/15 02:14:22;;;;;;;5.10;1.60;;;;;;;8.83;49.07;93104.84;4986933;28;20034;-77
2023/04/15 02:16:47;;;;;;;3.63;1.63;;;;;;;8.72;49.46;93103.66;4987659;28;20405;-78
2023/04/15 02:19:14;;;;;;;4.55;1.67;;;;;;;8.75;49.53;93117.06;4989785;28;20021;-78
2023/04/15 02:21:39;;;;;;;8.20;2.20;;;;;;;8.46;49.86;93093.91;4987865;28;20034;-79
2023/04/15 02:24:05;;;;;;;2.15;1.60;;;;;;;8.55;50.19;93110.59;4985102;28;20038;-78
2023/04/15 02:26:33;;;;;;;3.50;1.50;;;;;;;8.52;49.85;93084.69;5002794;28;20426;-78
2023/04/15 02:28:59;;;;;;;4.88;1.70;;;;;;;8.42;50.30;93094.84;4985679;28;20046;-77
2023/04/15 02:31:24;;;;;;;6.35;1.70;;;;;;;8.64;49.69;93107.13;4987048;28;20038;-79
2023/04/15 02:33:50;;;;;;;2.67;1.30;;;;;;;8.38;50.00;93089.41;4987267;28;20366;-77
2023/04/15 02:36:16;;;;;;;3.28;1.40;;;;;;;8.51;49.72;93088.44;4985368;28;20559;-77
2023/04/15 02:38:42;;;;;;;4.40;1.67;;;;;;;8.66;49.34;93108.34;4988558;28;20042;-78
2023/04/15 02:41:10;;;;;;;1.67;1.20;;;;;;;8.59;49.43;93108.84;4985938;28;20374;-77
2023/04/15 02:43:36;;;;;;;2.95;2.38;;;;;;;8.40;50.52;93134.94;4987497;28;20441;-78
2023/04/15 02:46:01;;;;;;;5.68;2.33;;;;;;;8.34;50.76;93104.41;4987600;28;20021;-78
2023/04/15 02:48:26;;;;;;;6.38;2.25;;;;;;;8.32;50.62;93106.56;4987590;28;20776;-76
2023/04/15 02:50:52;;;;;;;4.22;2.03;;;;;;;8.44;50.79;93122.59;4986834;28;20054;-78
2023/04/15 02:53:18;;;;;;;2.80;1.98;;;;;;;8.18;51.53;93100.69;4989538;28;20038;-78
2023/04/15 02:55:44;;;;;;;3.80;2.00;;;;;;;8.32;51.15;93111.88;4986023;28;20081;-76
2023/04/15 02:58:09;;;;;;;2.92;1.75;;;;;;;8.14;51.09;93089.16;4986941;28;20034;-78
2023/04/15 03:00:35;;;;;;;3.15;1.90;;;;;;;8.36;50.31;93135.88;4987163;28;20084;-76
2023/04/15 03:03:03;;;;;;;4.95;1.92;;;;;;;8.06;51.06;93132.34;4985946;28;20133;-78
2023/04/15 03:05:29;;;;;;;4.65;2.08;;;;;;;7.69;52.54;93115.19;4987648;28;20087;-78
2023/04/15 03:07:54;;;;;;;3.78;2.00;;;;;;;8.05;51.47;93139.50;4985786;28;20448;-77
2023/04/15 03:10:20;;;;;;;2.75;2.00;;;;;;;8.07;51.61;93141.84;4987806;28;20037;-77
2023/04/15 03:12:46;;;;;;;7.40;2.58;;;;;;;7.98;51.59;93138.41;4986264;28;20404;-78
2023/04/15 03:15:12;;;;;;;6.30;2.60;;;;;;;7.86;52.55;93140.91;4988672;28;20748;-77
2023/04/15 03:17:37;;;;;;;3.25;2.30;;;;;;;7.65;52.68;93124.84;4984259;28;20044;-78
2023/04/15 03:20:04;;;;;;;5.93;2.97;;;;;;;7.70;53.05;93133.41;4986344;28;20515;-77
2023/04/15 03:22:32;;;;;;;6.88;2.95;;;;;;;7.68;52.92;93134.78;4985448;28;20030;-78
2023/04/15 03:24:58;;;;;;;3.08;2.63;;;;;;;7.81;52.49;93149.00;4987066;28;20022;-78
2023/04/15 03:27:24;;;;;;;6.68;2.42;;;;;;;7.60;53.06;93144.28;4985109;28;20038;-78
2023/04/15 03:29:50;;;;;;;6.85;3.45;;;;;;;7.76;53.02;93149.16;4985465;28;20320;-78
2023/04/15 03:32:16;;;;;;;7.05;4.10;;;;;;;7.71;53.48;93150.84;4988794;28;20056;-78
2023/04/15 03:34:41;;;;;;;6.47;3.70;;;;;;;7.82;53.23;93159.28;4988243;28;20505;-78
2023/04/15 03:37:07;;;;;;;8.70;4.15;;;;;;;7.75;53.42;93147.59;4987110;28;20034;-78
2023/04/15 03:39:34;;;;;;;6.88;3.80;;;;;;;7.76;54.09;93165.81;4987598;28;20613;-77
2023/04/15 03:42:00;;;;;;;7.82;3.75;;;;;;;7.62;53.74;93163.28;4987421;28;20042;-78
2023/04/15 03:44:26;;;;;;;11.73;4.43;;;;;;;7.49;54.18;93169.47;4991728;28;20045;-78
2023/04/15 03:46:52;;;;;;;4.90;3.58;;;;;;;7.19;54.93;93163.19;4991880;28;20042;-77
2023/04/15 03:49:18;;;;;;;7.18;4.72;;;;;;;7.12;55.87;93185.88;4986723;28;20602;-77
2023/04/15 03:51:44;;;;;;;9.10;4.75;;;;;;;7.12;54.74;93144.34;4985819;28;20040;-77
2023/04/15 03:54:10;;;;;;;5.13;4.32;;;;;;;7.28;54.77;93190.47;4999252;28;20038;-78
2023/04/15 03:56:35;;;;;;;7.50;4.45;;;;;;;7.20;55.00;93187.78;4985392;28;20112;-78
2023/04/15 03:59:01;;;;;;;6.85;3.85;;;;;;;7.06;54.75;93172.03;4985158;28;20572;-77
2023/04/15 04:01:26;;;;;;;8.32;4.20;;;;;;;7.17;54.83;93172.53;4984692;28;20103;-77
2023/04/15 04:03:51;;;;;;;8.20;5.82;;;;;;;6.91;56.05;93147.84;4983689;28;20028;-78
2023/04/15 04:06:17;;;;;;;6.05;4.60;;;;;;;7.04;56.72;93174.22;4984390;28;20124;-78
2023/04/15 04:08:42;;;;;;;9.43;5.38;;;;;;;7.11;56.67;93194.91;4983191;28;20577;-78
2023/04/15 04:11:08;;;;;;;10.50;5.50;;;;;;;7.24;56.53;93199.28;4985832;28;20574;-78
2023/04/15 04:13:33;;;;;;;11.27;5.05;;;;;;;7.12;56.51;93191.16;4984420;28;20045;-78
2023/04/15 04:15:59;;;;;;;8.18;4.18;;;;;;;7.27;56.37;93183.59;4986785;28;20037;-78
2023/04/15 04:18:24;;;;;;;5.45;4.68;;;;;;;7.49;56.09;93195.94;4984262;28;20245;-77
2023/04/15 04:20:50;;;;;;;7.95;4.53;;;;;;;7.39;55.88;93164.47;4984944;28;20042;-77
2023/04/15 04:23:15;;;;;;;6.35;3.80;;;;;;;7.40;55.79;93160.75;4983981;28;20117;-77
2023/04/15 04:25:41;;;;;;;9.82;6.05;;;;;;;7.69;55.29;93184.00;4992578;28;20599;-78
2023/04/15 04:28:06;;;;;;;8.18;4.35;;;;;;;7.73;55.43;93181.56;5005520;28;20037;-77
2023/04/15 04:30:32;;;;;;;6.95;4.90;;;;;;;7.36;56.14;93143.94;5002567;28;20122;-77
2023/04/15 04:32:57;;;;;;;8.05;4.68;;;;;;;7.71;55.17;93150.84;5004154;28;20125;-78
2023/04/15 04:35:23;;;;;;;7.47;4.40;;;;;;;7.88;55.01;93173.13;5006217;28;20038;-77
2023/04/15 04:37:48;;;;;;;9.57;4.32;;;;;;;8.07;54.72;93178.94;5003347;28;20045;-77
2023/04/15 04:40:14;;;;;;;10.00;5.28;;;;;;;8.16;54.20;93198.22;5003120;28;20040;-77
2023/04/15 04:42:39;;;;;;;6.25;5.30;;;;;;;7.96;53.65;93148.53;5004000;28;20441;-78
2023/04/15 04:45:05;;;;;;;6.60;4.93;;;;;;;8.51;53.15;93191.03;5002952;28;20445;-77
2023/04/15 04:47:30;;;;;;;6.90;3.85;;;;;;;8.42;53.47;93204.28;5003579;28;21132;-78
2023/04/15 04:49:56;;;;;;;9.15;4.30;;;;;;;8.40;53.93;93198.53;5004119;28;20351;-76
2023/04/15 04:52:21;;;;;;;5.80;3.47;;;;;;;8.66;53.14;93195.81;5002849;28;20111;-76
2023/04/15 04:54:46;;;;;;;10.35;4.07;;;;;;;8.75;53.44;93198.47;5004991;28;20026;-79
2023/04/15 04:57:12;;;;;;;8.75;4.57;;;;;;;8.36;54.91;93208.19;5004782;28;20108;-79
2023/04/15 04:59:38;;;;;;;10.63;6.00;;;;;;;7.66;56.41;93211.88;5003526;28;20034;-78
2023/04/15 05:02:03;;;;;;;8.95;6.05;;;;;;;7.20;57.42;93216.84;5004598;28;20665;-77
2023/04/15 05:04:30;;;;;;;13.52;7.22;;;;;;;7.14;58.31;93220.75;5003891;28;20095;-78
2023/04/15 05:06:58;;;;;;;13.32;7.75;;;;;;;7.29;58.55;93233.53;5008452;28;20028;-78
2023/04/15 05:09:24;;;;;;;11.07;8.32;;;;;;;7.11;58.78;93240.63;5004387;28;20049;-78
2023/04/15 05:11:49;;;;;;;18.27;9.52;;;;;;;7.53;57.96;93236.56;5005986;28;20069;-78
2023/04/15 05:14:15;;;;;;;11.40;8.75;;;;;;;7.54;56.78;93245.28;5005804;28;20037;-78
2023/04/15 05:16:40;;;;;;;17.80;8.75;;;;;;;7.33;57.71;93247.72;5008805;28;20170;-77
2023/04/15 05:19:06;;;;;;;12.60;8.32;;;;;;;7.57;56.74;93261.34;5006172;28;20141;-77
2023/04/15 05:21:32;;;;;;;8.23;6.75;;;;;;;7.90;53.95;93264.41;5008512;28;20018;-77
2023/04/15 05:23:57;;;;;;;9.38;6.97;;;;;;;7.83;53.85;93268.59;5008605;28;20253;-77
2023/04/15 05:26:23;;;;;;;14.90;8.68;;;;;;;8.07;53.91;93253.81;5006348;28;20038;-78
2023/04/15 05:28:49;;;;;;;14.55;8.63;;;;;;;8.03;53.20;93262.69;5009585;28;20034;-77
2023/04/15 05:31:14;;;;;;;9.80;7.60;;;;;;;7.75;53.22;93256.91;5007471;28;20060;-79
2023/04/15 05:33:40;;;;;;;9.00;6.88;;;;;;;7.03;55.64;93230.03;5006982;28;20032;-79
2023/04/15 05:36:06;;;;;;;12.57;7.68;;;;;;;7.36;54.02;93227.81;5008379;28;20089;-77
2023/04/15 05:38:31;;;;;;;14.02;7.50;;;;;;;7.07;55.04;93228.31;5005714;28;20131;-78
2023/04/15 05:40:57;;;;;;;11.32;6.78;;;;;;;7.06;54.95;93234.69;5007814;28;20030;-78
2023/04/15 05:43:22;;;;;;;10.23;5.90;;;;;;;7.50;53.98;93234.53;5004633;28;20038;-78
2023/04/15 05:45:47;;;;;;;10.05;5.70;;;;;;;8.11;52.16;93243.41;5007608;28;20027;-78
2023/04/15 05:48:13;;;;;;;11.95;5.65;;;;;;;7.92;52.83;93235.78;5005857;28;20057;-78
2023/04/15 05:50:41;;;;;;;9.32;5.38;;;;;;;7.95;52.54;93247.59;5010515;28;21014;-77
2023/04/15 05:53:07;;;;;;;10.70;5.35;;;;;;;8.17;52.04;93236.84;5006592;28;20041;-77
2023/04/15 05:55:33;;;;;;;8.38;5.25;;;;;;;8.30;51.75;93241.25;5008845;28;20033;-77
2023/04/15 05:57:58;;;;;;;13.52;5.32;;;;;;;8.03;52.70;93252.13;5008828;28;20396;-77
2023/04/15 06:00:25;;;;;;;9.80;5.72;;;;;;;7.84;52.54;93209.25;5007880;28;20562;-77
2023/04/15 06:02:51;;;;;;;11.30;6.22;;;;;;;8.08;52.29;93242.16;5007813;28;20505;-79
2023/04/15 06:05:17;;;;;;;10.18;5.72;;;;;;;8.19;52.43;93263.81;5006596;28;20099;-79
2023/04/15 06:07:43;;;;;;;10.18;5.63;;;;;;;8.04;53.14;93237.78;5007868;28;20712;-78
2023/04/15 06:10:09;;;;;;;8.65;5.75;;;;;;;7.96;54.58;93273.00;5006924;28;20045;-77
2023/04/15 06:12:35;;;;;;;7.50;5.80;;;;;;;7.75;53.38;93253.47;5008182;28;20087;-78
2023/04/15 06:15:00;;;;;;;11.13;5.43;;;;;;;8.39;53.62;93276.47;5005394;28;20046;-79
2023/04/15 06:17:26;;;;;;;11.18;6.20;;;;;;;7.99;54.22;93261.78;5007512;28;20072;-77
2023/04/15 06:19:54;;;;;;;10.98;6.72;;;;;;;8.44;53.65;93260.41;5003847;28;20041;-78
2023/04/15 06:22:22;;;;;;;8.85;6.75;;;;;;;8.86;53.08;93268.59;5008103;28;20034;-77
2023/04/15 06:24:51;;;;;;;8.30;6.97;;;;;;;8.93;53.20;93290.13;5004511;28;20080;-77
2023/04/15 06:27:17;;;;;;;10.73;7.03;;;;;;;8.94;52.80;93291.69;5006908;28;20037;-79
2023/04/15 06:29:43;;;;;;;11.52;6.25;;;;;;;9.09;52.79;93283.25;5005778;28;20188;-79
2023/04/15 06:32:08;;;;;;;11.50;6.43;;;;;;;8.72;52.23;93275.97;5007731;28;20033;-79
2023/04/15 06:34:33;;;;;;;12.00;6.47;;;;;;;8.77;52.72;93291.72;5008679;28;20034;-78
2023/04/15 06:37:00;;;;;;;9.05;6.10;;;;;;;8.73;52.06;93293.44;5005273;28;20514;-78
2023/04/15 06:39:25;;;;;;;10.43;5.90;;;;;;;9.60;51.02;93286.84;5006777;28;20025;-78
2023/04/15 06:41:51;;;;;;;10.68;6.20;;;;;;;9.64;50.60;93303.69;5004946;28;20041;-78
2023/04/15 06:44:17;;;;;;;11.82;6.35;;;;;;;9.70;49.30;93266.03;5007314;28;20131;-78
2023/04/15 06:46:43;;;;;;;10.80;6.07;;;;;;;9.50;50.76;93301.25;5004499;28;20218;-78
2023/04/15 06:49:08;;;;;;;13.60;6.80;;;;;;;9.83;49.48;93298.75;5009268;28;20271;-78
2023/04/15 06:51:35;;;;;;;7.80;5.75;;;;;;;10.39;48.47;93307.38;5004919;28;20022;-78
2023/04/15 06:54:01;;;;;;;8.18;5.00;;;;;;;9.87;48.94;93297.03;5006503;28;20046;-79
2023/04/15 06:56:27;;;;;;;14.02;5.40;;;;;;;9.68;49.29;93309.94;5005650;28;20388;-78
2023/04/15 06:58:52;;;;;;;8.18;4.55;;;;;;;10.12;49.14;93293.44;5005389;28;20068;-76
2023/04/15 07:01:17;;;;;;;8.82;4.82;;;;;;;10.08;48.17;93303.16;5006962;28;20021;-76
2023/04/15 07:03:43;;;;;;;9.98;4.90;;;;;;;10.17;48.37;93305.78;5006121;28;20033;-78
2023/04/15 07:06:09;;;;;;;9.80;5.10;;;;;;;10.53;47.29;93313.22;5003615;28;20096;-79
2023/04/15 07:08:34;;;;;;;7.72;4.28;;;;;;;10.23;48.69;93293.84;5008393;28;20049;-78
2023/04/15 07:11:00;;;;;;;8.77;5.43;;;;;;;9.91;47.93;93307.78;5005313;28;20085;-78
2023/04/15 07:13:26;;;;;;;10.52;5.15;;;;;;;10.43;48.55;93294.97;5007608;28;20038;-77
2023/04/15 07:15:51;;;;;;;10.80;5.70;;;;;;;10.81;47.58;93308.91;5005845;28;20395;-78
2023/04/15 07:18:16;;;;;;;7.70;4.78;;;;;;;10.43;46.12;93281.69;5005258;28;20044;-78
2023/04/15 07:20:42;;;;;;;6.53;4.07;;;;;;;10.81;46.12;93302.84;5005693;28;20034;-77
2023/04/15 07:23:07;;;;;;;5.25;4.40;;;;;;;10.95;45.73;93277.50;5005348;28;20570;-78
2023/04/15 07:25:33;;;;;;;8.00;4.18;;;;;;;11.17;45.67;93305.63;5004998;28;20034;-78
2023/04/15 07:27:59;;;;;;;7.43;3.60;;;;;;;11.15;44.65;93313.13;5004874;28;20552;-80
2023/04/15 07:30:24;;;;;;;7.47;5.03;;;;;;;10.92;47.42;93314.63;5003569;28;20044;-79
2023/04/15 07:32:50;;;;;;;7.13;5.07;;;;;;;10.93;46.28;93300.22;5007585;28;21150;-78
2023/04/15 07:35:15;;;;;;;10.02;5.05;;;;;;;10.68;47.13;93308.09;5006138;28;20045;-78
2023/04/15 07:37:42;;;;;;;7.60;4.70;;;;;;;10.28;46.31;93286.47;5004454;28;20531;-76
2023/04/15 07:40:08;;;;;;;12.15;4.05;;;;;;;10.81;45.19;93286.88;5003272;28;20025;-77
2023/04/15 07:42:34;;;;;;;6.82;4.25;;;;;;;10.94;44.82;93302.56;5006103;28;20032;-77
2023/04/15 07:45:00;;;;;;;8.38;4.18;;;;;;;10.88;45.09;93277.25;5002659;28;20489;-76
2023/04/15 07:47:26;;;;;;;6.55;3.85;;;;;;;10.57;46.44;93304.25;5006562;28;20092;-79
2023/04/15 07:49:51;;;;;;;7.03;3.50;;;;;;;10.64;46.19;93315.16;5003558;28;20047;-76
2023/04/15 07:52:17;;;;;;;10.93;4.28;;;;;;;10.64;46.63;93317.03;5006176;28;20060;-77
2023/04/15 07:54:42;;;;;;;7.43;3.72;;;;;;;10.69;46.82;93287.59;5004708;28;20578;-77
2023/04/15 07:57:08;;;;;;;5.80;4.38;;;;;;;10.51;46.87;93328.72;5005015;28;20046;-77
2023/04/15 07:59:33;;;;;;;6.72;3.47;;;;;;;10.09;47.38;93306.59;5004809;28;20305;-77
2023/04/15 08:01:59;;;;;;;9.20;4.35;;;;;;;10.31;46.07;93324.91;5004944;28;20496;-78
2023/04/15 08:04:25;;;;;;;4.60;3.67;;;;;;;10.28;46.39;93322.88;5006511;28;20042;-77
2023/04/15 08:06:51;;;;;;;8.93;4.03;;;;;;;10.09;45.40;93288.78;5004237;28;20033;-76
2023/04/15 08:09:16;;;;;;;8.18;3.38;;;;;;;10.18;46.29;93321.38;5003335;28;20099;-76
2023/04/15 08:11:42;;;;;;;4.97;3.28;;;;;;;10.58;45.43;93308.47;5003773;28;20124;-76
2023/04/15 08:14:07;;;;;;;8.27;3.60;;;;;;;10.85;45.52;93312.50;5005329;28;20136;-77
2023/04/15 08:16:33;;;;;;;5.57;3.22;;;;;;;10.50;44.11;93312.00;5005313;28;20400;-76
2023/04/15 08:18:58;;;;;;;7.20;2.30;;;;;;;10.55;44.32;93313.69;5005211;28;20029;-76
2023/04/15 08:21:24;;;;;;;4.88;2.50;;;;;;;11.02;43.21;93315.00;5004953;28;20045;-76
2023/04/15 08:23:51;;;;;;;4.72;2.33;;;;;;;10.88;42.07;93314.50;5006452;28;20424;-76
2023/04/15 08:26:17;;;;;;;6.50;2.10;;;;;;;11.46;42.28;93326.00;5005351;28;20041;-78
2023/04/15 08:28:44;;;;;;;4.18;2.15;;;;;;;11.45;41.37;93330.53;5004934;28;20040;-76
2023/04/15 08:31:09;;;;;;;2.95;2.22;;;;;;;11.56;40.94;93317.59;5002948;28;20029;-76
2023/04/15 08:33:35;;;;;;;5.75;2.28;;;;;;;11.63;39.96;93322.41;5012669;28;20079;-77
2023/04/15 08:36:01;;;;;;;4.00;1.98;;;;;;;11.21;38.89;93303.84;5005123;28;20170;-77
2023/04/15 08:38:26;;;;;;;4.45;1.55;;;;;;;11.91;38.59;93308.09;5003772;28;20037;-78
2023/04/15 08:40:52;;;;;;;3.20;1.80;;;;;;;11.93;39.45;93284.53;4996864;28;20075;-77
2023/04/15 08:43:25;;;;;;;5.85;2.50;;;;;;;12.29;38.69;93302.41;4983029;28;20018;-78
2023/04/15 08:45:51;;;;;;;3.97;1.30;;;;;;;12.46;39.01;93301.41;4983703;28;20026;-77
2023/04/15 08:48:18;;;;;;;3.28;1.50;;;;;;;12.45;37.59;93284.63;4986359;28;20516;-77
2023/04/15 08:50:45;;;;;;;2.88;1.13;;;;;;;12.44;37.97;93303.63;4990998;28;20045;-76
2023/04/15 08:53:11;;;;;;;2.70;1.50;;;;;;;11.91;37.22;93292.13;5002293;28;20514;-77
2023/04/15 08:55:43;;;;;;;1.88;1.00;;;;;;;11.67;37.67;93301.97;4987573;28;20128;-77
2023/04/15 08:58:10;;;;;;;2.95;1.20;;;;;;;11.54;38.33;93298.53;4988837;28;20026;-76
2023/04/15 09:00:37;;;;;;;2.42;0.90;;;;;;;11.62;36.29;93305.63;4989010;28;20520;-76
2023/04/15 09:03:04;;;;;;;2.55;0.70;;;;;;;11.98;38.77;93297.66;4989107;28;20240;-76
2023/04/15 09:05:34;;;;;;;1.27;0.80;;;;;;;12.07;34.83;93260.25;4988057;28;20031;-76
2023/04/15 09:08:01;;;;;;;0.73;0.60;;;;;;;12.46;35.62;93277.41;4988047;28;20097;-76
2023/04/15 09:10:26;;;;;;;1.58;0.60;;;;;;;11.81;34.91;93281.91;4987434;28;20490;-76
2023/04/15 09:12:52;;;;;;;1.35;0.60;;;;;;;11.69;34.18;93268.56;4989441;28;20030;-78
2023/04/15 09:15:17;;;;;;;2.13;0.57;;;;;;;11.64;35.03;93290.09;4989090;28;20113;-76
2023/04/15 09:17:44;;;;;;;3.58;0.90;;;;;;;12.17;34.52;93283.00;4987826;28;20057;-77
2023/04/15 09:20:12;;;;;;;1.20;0.50;;;;;;;12.53;33.34;93268.81;4989885;28;20038;-77
2023/04/15 09:22:41;;;;;;;2.33;0.75;;;;;;;12.65;33.19;93277.59;4988558;28;20052;-76
2023/04/15 09:25:22;;;;;;;1.17;0.70;;;;;;;12.72;32.01;93280.44;4989493;28;20408;-77
2023/04/15 09:27:52;;;;;;;1.10;0.82;;;;;;;12.85;31.95;93273.19;4989217;28;20420;-77
2023/04/15 09:30:18;;;;;;;0.50;0.50;;;;;;;12.98;31.60;93273.91;4985705;28;20061;-77
2023/04/15 09:32:50;;;;;;;1.02;0.90;;;;;;;13.10;33.19;93277.31;4988493;28;20130;-76
2023/04/15 09:35:16;;;;;;;3.33;0.77;;;;;;;12.63;33.23;93273.69;4988745;28;20513;-76
2023/04/15 09:37:41;;;;;;;3.30;0.90;;;;;;;12.47;34.47;93265.59;4988340;28;20048;-76
2023/04/15 09:40:08;;;;;;;2.47;1.27;;;;;;;12.64;34.69;93276.03;4984654;28;20089;-76
2023/04/15 09:42:34;;;;;;;1.67;1.05;;;;;;;12.34;34.79;93261.41;4990385;28;20417;-76
2023/04/15 09:45:12;;;;;;;2.63;0.70;;;;;;;12.36;33.21;93265.31;4993798;28;20038;-77
2023/04/15 09:47:38;;;;;;;3.45;0.90;;;;;;;12.41;33.36;93277.63;4988553;28;20630;-77
2023/04/15 09:50:03;;;;;;;3.95;0.90;;;;;;;12.43;32.49;93272.72;4987838;28;20050;-77
2023/04/15 09:52:29;;;;;;;1.25;0.75;;;;;;;12.41;31.21;93262.41;4988016;28;20035;-78
2023/04/15 09:54:59;;;;;;;1.05;0.57;;;;;;;12.74;31.71;93288.91;4987918;28;20037;-77
2023/04/15 09:57:33;;;;;;;1.85;0.60;;;;;;;13.06;31.04;93238.25;5004612;28;20048;-75
2023/04/15 09:59:58;;;;;;;2.40;0.73;;;;;;;12.85;31.88;93255.28;5005187;28;20159;-75
2023/04/15 10:02:26;;;;;;;4.28;0.60;;;;;;;12.52;31.12;93273.34;5007018;28;20602;-75
2023/04/15 10:04:52;;;;;;;1.60;0.80;;;;;;;12.59;31.31;93257.59;5007229;28;20389;-75
2023/04/15 10:07:21;;;;;;;0.88;0.60;;;;;;;13.20;30.74;93284.06;5008198;28;20116;-77
2023/04/15 10:09:50;;;;;;;2.83;0.65;;;;;;;13.16;30.98;93259.13;5013176;28;20854;-78
2023/04/15 10:12:19;;;;;;;4.30;0.70;;;;;;;13.01;31.88;93262.53;5008671;28;20041;-77
2023/04/15 10:14:51;;;;;;;1.67;0.60;;;;;;;13.37;31.11;93270.38;5005587;28;20057;-78
2023/04/15 10:17:21;;;;;;;0.63;0.60;;;;;;;13.55;32.70;93268.91;5003157;28;20046;-77
2023/04/15 10:19:47;;;;;;;1.05;0.68;;;;;;;13.77;30.96;93266.78;5007234;28;20096;-79
2023/04/15 10:22:13;;;;;;;4.55;0.70;;;;;;;13.52;28.74;93250.91;5007693;28;20022;-77
2023/04/15 10:24:39;;;;;;;0.80;0.63;;;;;;;13.58;30.34;93262.13;5008106;28;20083;-78
2023/04/15 10:27:05;;;;;;;3.13;1.35;;;;;;;13.75;30.03;93246.53;5014478;28;20876;-77
2023/04/15 10:29:31;;;;;;;3.45;0.85;;;;;;;13.79;31.59;93240.50;5005206;28;20056;-78
2023/04/15 10:31:58;;;;;;;0.88;0.65;;;;;;;13.70;31.46;93224.63;5006853;28;20053;-77
2023/04/15 10:34:24;;;;;;;3.25;0.77;;;;;;;13.05;31.44;93236.72;5006642;28;20165;-76
2023/04/15 10:36:50;;;;;;;1.70;0.50;;;;;;;13.43;30.76;93228.94;5003884;28;20507;-77
2023/04/15 10:39:42;;;;;;;2.47;1.02;;;;;;;13.34;31.63;93244.34;5006842;28;20038;-76
2023/04/15 10:42:15;;;;;;;2.15;0.93;;;;;;;13.05;30.87;93236.72;5006944;28;20045;-77
2023/04/15 10:44:47;;;;;;;1.80;0.70;;;;;;;13.41;30.55;93207.13;5004838;28;20096;-77
2023/04/15 10:47:17;;;;;;;1.75;0.90;;;;;;;13.86;32.02;93225.41;5022573;28;20037;-78
2023/04/15 10:49:51;;;;;;;2.42;0.80;;;;;;;13.73;33.40;93224.75;5003381;28;20369;-76
2023/04/15 10:52:21;;;;;;;3.35;0.70;;;;;;;13.94;30.54;93231.66;5007084;28;20032;-77
2023/04/15 10:54:47;;;;;;;0.75;0.60;;;;;;;14.12;32.08;93214.16;5005062;28;20025;-77
2023/04/15 10:57:22;;;;;;;1.85;1.30;;;;;;;14.27;29.36;93236.63;5003134;28;20061;-76
2023/04/15 10:59:59;;;;;;;1.63;0.93;;;;;;;14.39;29.94;93237.25;5011552;28;20040;-77
2023/04/15 11:02:44;;;;;;;1.42;0.70;;;;;;;14.50;29.88;93227.56;5006818;28;20040;-77
2023/04/15 11:05:11;;;;;;;1.38;1.00;;;;;;;14.36;30.86;93224.59;5005454;28;20126;-77
2023/04/15 11:07:45;;;;;;;1.80;0.80;;;;;;;14.45;30.96;93227.06;5014329;28;20037;-76
2023/04/15 11:10:17;;;;;;;1.55;0.80;;;;;;;14.31;29.94;93230.22;5007307;28;20515;-76
2023/04/15 11:12:43;;;;;;;1.98;0.93;;;;;;;14.43;31.03;93229.31;5004935;28;20176;-77
2023/04/15 11:15:37;;;;;;;2.38;0.82;;;;;;;14.56;29.82;93239.59;5006554;28;20583;-76
2023/04/15 11:18:25;;;;;;;1.40;0.68;;;;;;;14.71;29.78;93234.50;5004862;28;20041;-76
2023/04/15 11:20:56;;;;;;;1.40;0.80;;;;;;;14.59;33.62;93227.38;5005995;28;20184;-76
2023/04/15 11:23:31;;;;;;;1.45;0.93;;;;;;;14.64;29.82;93218.31;5007589;28;20033;-76
2023/04/15 11:25:58;;;;;;;2.67;1.17;;;;;;;14.82;30.21;93208.72;5005477;28;20036;-75
2023/04/15 11:28:27;;;;;;;1.25;0.88;;;;;;;14.83;29.09;93231.69;5004867;28;20040;-78
2023/04/15 11:30:54;;;;;;;1.65;0.60;;;;;;;15.12;28.41;93239.13;5005023;28;20065;-78
2023/04/15 11:33:21;;;;;;;1.77;0.77;;;;;;;14.95;27.88;93240.34;4999791;28;20123;-79